createdAt,value
2018-04-14T00:01:24.870Z,0.00
2018-04-14T00:02:56.685Z,0.00
2018-04-14T00:04:28.500Z,0.00
2018-04-14T00:06:00.425Z,0.00
2018-04-14T00:07:32.130Z,0.00
2018-04-14T00:09:03.946Z,0.00
2018-04-14T00:10:35.761Z,0.00
2018-04-14T00:12:07.578Z,0.00
2018-04-14T00:13:39.391Z,0.00
2018-04-14T00:15:11.207Z,0.00
2018-04-14T00:16:43.023Z,0.00
2018-04-14T00:18:14.837Z,0.00
2018-04-14T00:19:46.652Z,0.00
2018-04-14T00:21:18.467Z,0.00
2018-04-14T00:22:50.282Z,0.00
2018-04-14T00:24:22.298Z,0.00
2018-04-14T00:25:53.913Z,0.00
2018-04-14T00:27:25.730Z,0.00
2018-04-14T00:28:57.545Z,0.00
2018-04-14T00:30:29.358Z,0.00
2018-04-14T00:32:01.173Z,0.00
2018-04-14T00:33:32.991Z,0.00
2018-04-14T00:35:04.807Z,0.00
2018-04-14T00:36:36.619Z,0.00
2018-04-14T00:38:08.433Z,0.00
2018-04-14T00:39:40.291Z,0.00
2018-04-14T00:41:12.063Z,0.00
2018-04-14T00:42:43.978Z,0.00
2018-04-14T00:44:15.693Z,0.00
2018-04-14T00:45:47.507Z,0.00
2018-04-14T00:47:19.323Z,0.00
2018-04-14T00:48:51.167Z,0.00
2018-04-14T00:50:22.953Z,0.00
2018-04-14T00:51:54.769Z,0.00
2018-04-14T00:53:26.588Z,0.00
2018-04-14T00:54:59.020Z,0.00
2018-04-14T00:56:30.215Z,0.00
2018-04-14T00:58:02.029Z,0.00
2018-04-14T00:59:33.860Z,0.00
2018-04-14T01:01:05.763Z,0.00
2018-04-14T01:02:37.475Z,0.00
2018-04-14T01:04:09.291Z,0.00
2018-04-14T01:05:41.106Z,0.00
2018-04-14T01:07:12.924Z,0.00
2018-04-14T01:08:44.736Z,0.00
2018-04-14T01:10:16.571Z,0.00
2018-04-14T01:11:48.366Z,0.00
2018-04-14T01:13:20.185Z,0.00
2018-04-14T01:14:51.997Z,0.00
2018-04-14T01:16:23.814Z,0.00
2018-04-14T01:17:55.627Z,0.00
2018-04-14T01:19:27.541Z,0.00
2018-04-14T01:20:59.458Z,0.00
2018-04-14T01:22:31.074Z,0.00
2018-04-14T01:24:02.887Z,0.00
2018-04-14T01:25:34.802Z,0.00
2018-04-14T01:27:06.518Z,0.00
2018-04-14T01:28:38.333Z,0.00
2018-04-14T01:30:10.149Z,0.00
2018-04-14T01:31:41.964Z,0.00
2018-04-14T01:33:13.780Z,0.00
2018-04-14T01:34:45.595Z,0.00
2018-04-14T01:36:17.410Z,0.00
2018-04-14T01:37:49.326Z,0.00
2018-04-14T01:39:21.041Z,0.00
2018-04-14T01:40:52.856Z,0.00
2018-04-14T01:42:24.671Z,0.00
2018-04-14T01:43:56.487Z,0.00
2018-04-14T01:45:28.302Z,0.00
2018-04-14T01:47:00.117Z,0.00
2018-04-14T01:48:31.933Z,0.00
2018-04-14T01:50:03.748Z,0.00
2018-04-14T01:51:35.568Z,0.00
2018-04-14T01:53:07.377Z,0.00
2018-04-14T01:54:39.193Z,0.00
2018-04-14T01:56:11.208Z,0.00
2018-04-14T01:57:42.823Z,0.00
2018-04-14T01:59:14.639Z,0.00
2018-04-14T02:00:46.454Z,0.00
2018-04-14T02:02:18.269Z,0.00
2018-04-14T02:03:50.082Z,0.00
2018-04-14T02:05:21.897Z,0.00
2018-04-14T02:06:53.714Z,0.00
2018-04-14T02:08:25.527Z,0.00
2018-04-14T02:09:57.343Z,0.00
2018-04-14T02:11:29.159Z,0.00
2018-04-14T02:13:00.973Z,0.00
2018-04-14T02:14:32.887Z,0.00
2018-04-14T02:16:04.602Z,0.00
2018-04-14T02:17:36.417Z,0.00
2018-04-14T02:19:08.238Z,0.00
2018-04-14T02:20:40.047Z,0.00
2018-04-14T02:22:11.863Z,0.00
2018-04-14T02:23:43.678Z,0.00
2018-04-14T02:25:15.493Z,0.00
2018-04-14T02:26:47.412Z,0.00
2018-04-14T02:28:19.123Z,0.00
2018-04-14T02:29:50.938Z,0.00
2018-04-14T02:31:22.753Z,0.00
2018-04-14T02:32:54.669Z,0.00
2018-04-14T02:34:26.383Z,0.00
2018-04-14T02:35:58.198Z,0.00
2018-04-14T02:37:30.013Z,0.00
2018-04-14T02:39:01.830Z,0.00
2018-04-14T02:40:33.642Z,0.00
2018-04-14T02:42:05.459Z,0.00
2018-04-14T02:43:37.272Z,0.00
2018-04-14T02:45:09.237Z,0.00
2018-04-14T02:46:40.902Z,0.00
2018-04-14T02:48:12.716Z,0.00
2018-04-14T02:49:44.531Z,0.00
2018-04-14T02:51:16.446Z,0.00
2018-04-14T02:52:48.160Z,0.00
2018-04-14T02:54:19.982Z,0.00
2018-04-14T02:55:51.790Z,0.00
2018-04-14T02:57:23.706Z,0.00
2018-04-14T02:58:55.420Z,0.00
2018-04-14T03:00:27.237Z,0.00
2018-04-14T03:01:59.052Z,0.00
2018-04-14T03:03:30.865Z,0.00
2018-04-14T03:05:02.678Z,0.00
2018-04-14T03:06:34.494Z,0.00
2018-04-14T03:08:06.309Z,0.00
2018-04-14T03:09:38.475Z,0.00
2018-04-14T03:11:09.937Z,0.00
2018-04-14T03:12:41.752Z,0.00
2018-04-14T03:14:13.568Z,0.00
2018-04-14T03:15:45.382Z,0.00
2018-04-14T03:17:17.197Z,0.00
2018-04-14T03:18:49.013Z,0.00
2018-04-14T03:20:20.827Z,0.00
2018-04-14T03:21:52.642Z,0.00
2018-04-14T03:23:24.460Z,0.00
2018-04-14T03:24:56.272Z,0.00
2018-04-14T03:26:28.087Z,0.00
2018-04-14T03:28:00.152Z,0.00
2018-04-14T03:29:31.716Z,0.00
2018-04-14T03:31:03.532Z,0.00
2018-04-14T03:32:35.347Z,0.00
2018-04-14T03:34:07.161Z,0.00
2018-04-14T03:35:38.975Z,0.00
2018-04-14T03:37:10.790Z,0.00
2018-04-14T03:38:42.605Z,0.00
2018-04-14T03:40:14.429Z,0.00
2018-04-14T03:41:46.436Z,0.00
2018-04-14T03:43:18.050Z,0.00
2018-04-14T03:44:49.865Z,0.00
2018-04-14T03:46:21.781Z,0.00
2018-04-14T03:47:53.495Z,0.00
2018-04-14T03:49:25.310Z,0.00
2018-04-14T03:50:57.125Z,0.00
2018-04-14T03:52:28.940Z,0.00
2018-04-14T03:54:00.756Z,0.00
2018-04-14T03:55:32.571Z,0.00
2018-04-14T03:57:04.386Z,0.00
2018-04-14T03:58:36.301Z,0.00
2018-04-14T04:00:08.028Z,0.00
2018-04-14T04:01:40.134Z,0.00
2018-04-14T04:03:11.646Z,0.00
2018-04-14T04:04:43.561Z,0.00
2018-04-14T04:06:15.276Z,0.00
2018-04-14T04:07:47.093Z,0.00
2018-04-14T04:09:18.906Z,0.00
2018-04-14T04:10:50.721Z,0.00
2018-04-14T04:12:22.576Z,0.00
2018-04-14T04:13:54.352Z,0.00
2018-04-14T04:15:26.167Z,0.00
2018-04-14T04:16:58.236Z,0.00
2018-04-14T04:18:29.796Z,0.00
2018-04-14T04:20:01.611Z,0.00
2018-04-14T04:21:33.426Z,0.00
2018-04-14T04:23:05.341Z,0.00
2018-04-14T04:24:37.063Z,0.00
2018-04-14T04:26:08.871Z,0.00
2018-04-14T04:27:40.685Z,0.00
2018-04-14T04:29:12.601Z,0.00
2018-04-14T04:30:44.316Z,0.00
2018-04-14T04:32:16.131Z,0.00
2018-04-14T04:33:47.946Z,0.00
2018-04-14T04:35:19.762Z,0.00
2018-04-14T04:36:51.577Z,0.00
2018-04-14T04:38:23.440Z,0.00
2018-04-14T04:39:55.208Z,0.00
2018-04-14T04:41:27.126Z,0.00
2018-04-14T04:42:59.142Z,0.00
2018-04-14T04:44:30.652Z,0.00
2018-04-14T04:46:02.468Z,0.00
2018-04-14T04:47:34.534Z,0.00
2018-04-14T04:49:06.098Z,0.00
2018-04-14T04:50:37.913Z,0.00
2018-04-14T04:52:09.728Z,0.00
2018-04-14T04:53:41.542Z,0.00
2018-04-14T04:55:13.358Z,0.00
2018-04-14T04:56:45.173Z,0.00
2018-04-14T04:58:16.987Z,0.00
2018-04-14T04:59:48.903Z,0.00
2018-04-14T05:01:20.617Z,0.00
2018-04-14T05:02:52.431Z,0.00
2018-04-14T05:04:24.249Z,0.00
2018-04-14T05:05:56.062Z,0.00
2018-04-14T05:07:27.876Z,0.00
2018-04-14T05:08:59.692Z,0.00
2018-04-14T05:10:31.506Z,0.00
2018-04-14T05:12:03.321Z,0.00
2018-04-14T05:13:35.136Z,0.00
2018-04-14T05:15:06.950Z,0.00
2018-04-14T05:16:38.765Z,0.00
2018-04-14T05:18:10.931Z,0.00
2018-04-14T05:19:42.394Z,0.00
2018-04-14T05:21:14.209Z,0.00
2018-04-14T05:22:46.024Z,0.00
2018-04-14T05:24:17.839Z,0.00
2018-04-14T05:25:49.654Z,0.00
2018-04-14T05:27:21.468Z,0.00
2018-04-14T05:28:53.283Z,0.00
2018-04-14T05:30:25.198Z,0.00
2018-04-14T05:31:56.913Z,0.00
2018-04-14T05:33:28.726Z,0.00
2018-04-14T05:35:00.542Z,0.00
2018-04-14T05:36:32.454Z,0.00
2018-04-14T05:38:04.169Z,0.00
2018-04-14T05:39:35.984Z,0.00
2018-04-14T05:41:07.797Z,0.00
2018-04-14T05:42:39.635Z,0.00
2018-04-14T05:44:11.427Z,0.00
2018-04-14T05:45:43.240Z,0.00
2018-04-14T05:47:15.056Z,0.00
2018-04-14T05:48:47.120Z,0.00
2018-04-14T05:50:18.684Z,0.00
2018-04-14T05:51:50.499Z,0.00
2018-04-14T05:53:22.314Z,0.00
2018-04-14T05:54:54.229Z,0.00
2018-04-14T05:56:25.942Z,0.00
2018-04-14T05:57:57.757Z,0.00
2018-04-14T05:59:29.572Z,0.00
2018-04-14T06:01:01.486Z,0.00
2018-04-14T06:02:33.201Z,0.00
2018-04-14T06:04:05.013Z,0.00
2018-04-14T06:05:36.829Z,0.00
2018-04-14T06:07:08.643Z,0.00
2018-04-14T06:08:40.456Z,0.00
2018-04-14T06:10:12.272Z,0.00
2018-04-14T06:11:44.091Z,0.00
2018-04-14T06:13:16.001Z,0.00
2018-04-14T06:14:47.714Z,0.00
2018-04-14T06:16:19.529Z,0.00
2018-04-14T06:17:51.344Z,0.00
2018-04-14T06:19:23.410Z,0.00
2018-04-14T06:20:54.971Z,0.00
2018-04-14T06:22:26.793Z,0.00
2018-04-14T06:23:58.601Z,0.00
2018-04-14T06:25:30.416Z,0.00
2018-04-14T06:27:02.227Z,0.00
2018-04-14T06:28:34.043Z,0.00
2018-04-14T06:30:05.857Z,0.00
2018-04-14T06:31:37.871Z,0.00
2018-04-14T06:33:09.485Z,0.00
2018-04-14T06:34:41.299Z,0.00
2018-04-14T06:36:13.114Z,0.00
2018-04-14T06:37:45.434Z,0.00
2018-04-14T06:39:16.742Z,0.00
2018-04-14T06:40:48.556Z,0.00
2018-04-14T06:42:20.370Z,0.00
2018-04-14T06:43:52.184Z,0.00
2018-04-14T06:45:23.998Z,0.00
2018-04-14T06:46:55.812Z,0.00
2018-04-14T06:48:27.625Z,0.00
2018-04-14T06:49:59.791Z,0.00
2018-04-14T06:51:31.254Z,0.00
2018-04-14T06:53:03.068Z,0.00
2018-04-14T06:54:34.882Z,0.00
2018-04-14T06:56:06.846Z,0.00
2018-04-14T06:57:38.510Z,0.00
2018-04-14T06:59:10.325Z,0.00
2018-04-14T07:00:42.139Z,0.00
2018-04-14T07:02:14.054Z,0.00
2018-04-14T07:03:46.070Z,0.00
2018-04-14T07:05:17.580Z,0.00
2018-04-14T07:06:49.395Z,0.00
2018-04-14T07:08:21.312Z,0.00
2018-04-14T07:09:53.024Z,0.00
2018-04-14T07:11:24.842Z,0.00
2018-04-14T07:12:56.651Z,0.00
2018-04-14T07:14:28.486Z,0.00
2018-04-14T07:16:00.279Z,0.00
2018-04-14T07:17:32.093Z,0.00
2018-04-14T07:19:03.908Z,0.00
2018-04-14T07:20:35.984Z,0.00
2018-04-14T07:22:07.536Z,0.00
2018-04-14T07:23:39.349Z,0.00
2018-04-14T07:25:11.174Z,0.00
2018-04-14T07:26:43.119Z,0.00
2018-04-14T07:28:14.850Z,0.00
2018-04-14T07:29:46.605Z,0.00
2018-04-14T07:31:18.425Z,0.00
2018-04-14T07:32:50.337Z,0.00
2018-04-14T07:34:22.047Z,0.00
2018-04-14T07:35:53.862Z,0.00
2018-04-14T07:37:25.675Z,0.00
2018-04-14T07:38:57.490Z,0.00
2018-04-14T07:40:29.303Z,0.00
2018-04-14T07:42:01.117Z,0.00
2018-04-14T07:43:32.932Z,0.00
2018-04-14T07:45:04.890Z,0.00
2018-04-14T07:46:36.558Z,0.00
2018-04-14T07:48:08.373Z,0.00
2018-04-14T07:49:40.187Z,0.00
2018-04-14T07:51:12.251Z,0.00
2018-04-14T07:52:43.815Z,0.00
2018-04-14T07:54:15.633Z,0.00
2018-04-14T07:55:47.444Z,0.00
2018-04-14T07:57:19.257Z,0.00
2018-04-14T07:58:51.072Z,0.00
2018-04-14T08:00:22.886Z,0.00
2018-04-14T08:01:54.700Z,0.00
2018-04-14T08:03:26.714Z,0.00
2018-04-14T08:04:58.331Z,0.00
2018-04-14T08:06:30.142Z,0.00
2018-04-14T08:08:01.957Z,0.00
2018-04-14T08:09:33.770Z,0.00
2018-04-14T08:11:05.583Z,0.00
2018-04-14T08:12:37.400Z,0.00
2018-04-14T08:14:09.213Z,0.00
2018-04-14T08:15:41.026Z,0.00
2018-04-14T08:17:12.841Z,0.00
2018-04-14T08:18:44.659Z,0.00
2018-04-14T08:20:16.470Z,0.00
2018-04-14T08:21:48.635Z,0.00
2018-04-14T08:23:20.099Z,0.00
2018-04-14T08:24:51.912Z,0.00
2018-04-14T08:26:23.730Z,0.00
2018-04-14T08:27:55.540Z,0.00
2018-04-14T08:29:27.356Z,0.00
2018-04-14T08:30:59.169Z,0.00
2018-04-14T08:32:30.983Z,0.00
2018-04-14T08:34:02.898Z,0.00
2018-04-14T08:35:34.612Z,0.00
2018-04-14T08:37:06.426Z,0.00
2018-04-14T08:38:38.240Z,0.00
2018-04-14T08:40:10.157Z,0.00
2018-04-14T08:41:41.868Z,0.00
2018-04-14T08:43:13.682Z,0.00
2018-04-14T08:44:45.496Z,0.00
2018-04-14T08:46:17.310Z,0.00
2018-04-14T08:47:49.125Z,0.00
2018-04-14T08:49:20.939Z,0.00
2018-04-14T08:50:52.753Z,0.00
2018-04-14T08:52:24.717Z,0.00
2018-04-14T08:53:56.436Z,0.00
2018-04-14T08:55:28.195Z,4.00
2018-04-14T08:57:00.010Z,0.00
2018-04-14T08:58:31.928Z,4.00
2018-04-14T09:00:03.638Z,4.00
2018-04-14T09:01:35.452Z,8.00
2018-04-14T09:03:07.268Z,12.00
2018-04-14T09:04:39.181Z,20.00
2018-04-14T09:06:10.895Z,24.00
2018-04-14T09:07:42.709Z,40.00
2018-04-14T09:09:14.523Z,56.00
2018-04-14T09:10:46.337Z,84.00
2018-04-14T09:12:18.152Z,120.00
2018-04-14T09:13:49.967Z,168.00
2018-04-14T09:15:21.780Z,220.00
2018-04-14T09:16:54.195Z,288.00
2018-04-14T09:18:25.414Z,368.00
2018-04-14T09:19:57.223Z,456.00
2018-04-14T09:21:29.037Z,556.00
2018-04-14T09:23:00.851Z,660.00
2018-04-14T09:24:32.668Z,776.00
2018-04-14T09:26:04.480Z,904.00
2018-04-14T09:27:36.294Z,1048.00
2018-04-14T09:29:08.108Z,1188.00
2018-04-14T09:30:39.923Z,1332.00
2018-04-14T09:32:11.737Z,1472.00
2018-04-14T09:33:43.551Z,1688.00
2018-04-14T09:35:15.567Z,1860.00
2018-04-14T09:36:47.185Z,2024.00
2018-04-14T09:38:18.995Z,2208.00
2018-04-14T09:39:50.809Z,2384.00
2018-04-14T09:41:22.623Z,2544.00
2018-04-14T09:42:54.490Z,2776.00
2018-04-14T09:44:26.251Z,3052.00
2018-04-14T09:45:58.065Z,3192.00
2018-04-14T09:47:29.880Z,3432.00
2018-04-14T09:49:02.303Z,3692.00
2018-04-14T09:50:33.509Z,3784.00
2018-04-14T09:52:05.323Z,4172.00
2018-04-14T09:53:37.493Z,4620.00
2018-04-14T09:55:09.152Z,4696.00
2018-04-14T09:56:41.069Z,4812.00
2018-04-14T09:58:12.581Z,4964.00
2018-04-14T09:59:44.396Z,5480.00
2018-04-14T10:01:16.212Z,5672.00
2018-04-14T10:02:48.033Z,6252.00
2018-04-14T10:04:19.841Z,6228.00
2018-04-14T10:05:51.759Z,6080.00
2018-04-14T10:07:23.995Z,6920.00
2018-04-14T10:08:55.291Z,7272.00
2018-04-14T10:10:27.494Z,7828.00
2018-04-14T10:11:59.724Z,8160.00
2018-04-14T10:13:31.043Z,8608.00
2018-04-14T10:16:34.374Z,9584.00
2018-04-14T10:18:06.191Z,9800.00
2018-04-14T10:19:38.007Z,10072.00
2018-04-14T10:21:09.828Z,10236.00
2018-04-14T10:27:17.197Z,14268.00
2018-04-14T10:28:48.912Z,13460.00
2018-04-14T10:30:20.731Z,12908.00
2018-04-14T10:31:53.056Z,11176.00
2018-04-14T10:33:24.369Z,9648.00
2018-04-14T10:34:56.192Z,9484.00
2018-04-14T10:36:28.035Z,10340.00
2018-04-14T10:37:59.915Z,11212.00
2018-04-14T10:39:31.746Z,14468.00
2018-04-14T10:41:03.666Z,13752.00
2018-04-14T10:42:35.284Z,11776.00
2018-04-14T10:44:07.103Z,15448.00
2018-04-14T10:45:39.329Z,16524.00
2018-04-14T10:47:11.356Z,16480.00
2018-04-14T10:48:42.870Z,16332.00
2018-04-14T10:50:14.379Z,16820.00
2018-04-14T10:53:18.170Z,19552.00
2018-04-14T10:54:49.840Z,21920.00
2018-04-14T10:56:21.659Z,26176.00
2018-04-14T10:57:53.480Z,28064.00
2018-04-14T10:59:25.300Z,20608.00
2018-04-14T11:00:57.121Z,18752.00
2018-04-14T11:02:28.942Z,18240.00
2018-04-14T11:04:01.671Z,17368.00
2018-04-14T11:05:32.683Z,17584.00
2018-04-14T11:07:04.403Z,18400.00
2018-04-14T11:08:36.224Z,19424.00
2018-04-14T11:10:08.046Z,20544.00
2018-04-14T11:11:39.968Z,20960.00
2018-04-14T11:13:11.689Z,21088.00
2018-04-14T11:14:43.510Z,14120.00
2018-04-14T11:16:15.534Z,21856.00
2018-04-14T11:17:47.157Z,13616.00
2018-04-14T11:19:19.182Z,22208.00
2018-04-14T11:20:50.802Z,14108.00
2018-04-14T11:22:22.620Z,26816.00
2018-04-14T11:23:54.545Z,26592.00
2018-04-14T11:25:26.265Z,24992.00
2018-04-14T11:26:58.087Z,21792.00
2018-04-14T11:28:29.911Z,30336.00
2018-04-14T11:30:01.742Z,33472.00
2018-04-14T11:31:33.555Z,36640.00
2018-04-14T11:34:37.199Z,19968.00
2018-04-14T11:37:40.844Z,15228.00
2018-04-14T11:39:12.667Z,13828.00
2018-04-14T11:40:44.489Z,10720.00
2018-04-14T11:42:16.310Z,12248.00
2018-04-14T11:43:48.242Z,10988.00
2018-04-14T11:45:19.953Z,11336.00
2018-04-14T11:46:51.775Z,12004.00
2018-04-14T11:48:23.595Z,12512.00
2018-04-14T11:49:55.417Z,13868.00
2018-04-14T11:51:27.237Z,13804.00
2018-04-14T11:52:59.259Z,14680.00
2018-04-14T11:54:30.879Z,15564.00
2018-04-14T11:56:02.699Z,17404.00
2018-04-14T11:57:34.518Z,15532.00
2018-04-14T11:59:06.338Z,12980.00
2018-04-14T12:00:38.158Z,13724.00
2018-04-14T12:02:10.078Z,15064.00
2018-04-14T12:03:41.803Z,17648.00
2018-04-14T12:05:13.819Z,15052.00
2018-04-14T12:06:45.442Z,15624.00
2018-04-14T12:08:17.257Z,43392.00
2018-04-14T12:09:49.079Z,46304.00
2018-04-14T12:11:20.897Z,50880.00
2018-04-14T12:12:52.717Z,42784.00
2018-04-14T12:14:24.639Z,50432.00
2018-04-14T12:15:56.360Z,51904.00
2018-04-14T12:17:28.181Z,52896.00
2018-04-14T12:19:00.612Z,54592.00
2018-04-14T12:22:04.254Z,27424.00
2018-04-14T12:23:36.485Z,59872.00
2018-04-14T12:25:07.816Z,62304.00
2018-04-14T12:26:39.739Z,61728.00
2018-04-14T12:28:11.700Z,61312.00
2018-04-14T12:29:42.783Z,29376.00
2018-04-14T12:31:14.630Z,21184.00
2018-04-14T12:32:46.415Z,66784.00
2018-04-14T12:34:18.382Z,68416.00
2018-04-14T12:35:50.069Z,69536.00
2018-04-14T12:37:21.951Z,36064.00
2018-04-14T12:40:25.927Z,23552.00
2018-04-14T12:41:57.366Z,19488.00
2018-04-14T12:43:30.275Z,21728.00
2018-04-14T12:45:00.994Z,76448.00
2018-04-14T12:46:32.942Z,80704.00
2018-04-14T12:48:04.637Z,86656.00
2018-04-14T12:49:36.459Z,85024.00
2018-04-14T12:51:08.537Z,85056.00
2018-04-14T12:52:40.163Z,82752.00
2018-04-14T12:54:11.938Z,80288.00
2018-04-14T12:55:44.858Z,80480.00
2018-04-14T12:57:16.086Z,39840.00
2018-04-14T12:58:47.658Z,75840.00
2018-04-14T13:00:19.227Z,76160.00
2018-04-14T13:01:51.574Z,73568.00
2018-04-14T13:03:22.879Z,73056.00
2018-04-14T13:04:54.703Z,67424.00
2018-04-14T13:06:26.540Z,63296.00
2018-04-14T13:07:58.357Z,32256.00
2018-04-14T13:09:30.179Z,21888.00
2018-04-14T13:14:05.755Z,73824.00
2018-04-14T13:17:09.304Z,28000.00
2018-04-14T13:18:41.132Z,24832.00
2018-04-14T13:20:13.052Z,80896.00
2018-04-14T13:21:44.777Z,86912.00
2018-04-14T13:23:16.604Z,96224.00
2018-04-14T13:24:48.731Z,67328.00
2018-04-14T13:26:20.251Z,97696.00
2018-04-14T13:27:52.075Z,78208.00
2018-04-14T13:29:23.900Z,34944.00
2018-04-14T13:30:55.729Z,45696.00
2018-04-14T13:33:59.478Z,33440.00
2018-04-14T13:35:31.404Z,32832.00
2018-04-14T13:38:34.853Z,24064.00
2018-04-14T13:40:06.679Z,26176.00
2018-04-14T13:41:38.504Z,27744.00
2018-04-14T13:43:10.330Z,41248.00
2018-04-14T13:44:42.153Z,28192.00
2018-04-14T13:46:13.979Z,27680.00
2018-04-14T13:49:17.628Z,23456.00
2018-04-14T13:50:49.655Z,21376.00
2018-04-14T13:52:21.504Z,24640.00
2018-04-14T13:53:53.623Z,28000.00
2018-04-14T13:55:24.934Z,38880.00
2018-04-14T13:56:56.753Z,33536.00
2018-04-14T13:58:28.575Z,24544.00
2018-04-14T14:00:00.398Z,23712.00
2018-04-14T14:01:32.223Z,25056.00
2018-04-14T14:03:04.051Z,27520.00
2018-04-14T14:06:08.047Z,25216.00
2018-04-14T14:07:39.519Z,25344.00
2018-04-14T14:09:11.343Z,26176.00
2018-04-14T14:10:43.368Z,28384.00
2018-04-14T14:12:15.112Z,29376.00
2018-04-14T14:13:47.121Z,42496.00
2018-04-14T14:15:18.922Z,42624.00
2018-04-14T14:16:50.460Z,40192.00
2018-04-14T14:18:22.283Z,30368.00
2018-04-14T14:19:54.107Z,43680.00
2018-04-14T14:21:26.396Z,44448.00
2018-04-14T14:24:29.984Z,46912.00
2018-04-14T14:26:01.409Z,48416.00
2018-04-14T14:27:33.241Z,51232.00
2018-04-14T14:29:05.058Z,53472.00
2018-04-14T14:30:36.980Z,54720.00
2018-04-14T14:32:08.705Z,34112.00
2018-04-14T14:33:40.540Z,46176.00
2018-04-14T14:36:44.184Z,33216.00
2018-04-14T14:38:16.313Z,31520.00
2018-04-14T14:39:48.139Z,24960.00
2018-04-14T14:41:19.661Z,23808.00
2018-04-14T14:44:23.320Z,20384.00
2018-04-14T14:45:55.338Z,21760.00
2018-04-14T14:47:26.960Z,45024.00
2018-04-14T14:50:30.709Z,45152.00
2018-04-14T14:52:02.636Z,45568.00
2018-04-14T14:53:34.259Z,47360.00
2018-04-14T14:55:06.085Z,48896.00
2018-04-14T14:56:38.009Z,50912.00
2018-04-14T14:58:09.735Z,53184.00
2018-04-14T14:59:41.561Z,53280.00
2018-04-14T15:01:13.391Z,56960.00
2018-04-14T15:02:45.471Z,33824.00
2018-04-14T15:04:17.049Z,25408.00
2018-04-14T15:05:49.170Z,25664.00
2018-04-14T15:07:20.692Z,29920.00
2018-04-14T15:08:52.768Z,60512.00
2018-04-14T15:11:56.169Z,79872.00
2018-04-14T15:13:28.196Z,66880.00
2018-04-14T15:14:59.820Z,79616.00
2018-04-14T15:16:31.847Z,76544.00
2018-04-14T15:18:03.472Z,30656.00
2018-04-14T15:19:35.298Z,39968.00
2018-04-14T15:22:38.948Z,82208.00
2018-04-14T15:24:10.773Z,36864.00
2018-04-14T15:25:42.599Z,32160.00
2018-04-14T15:27:14.426Z,21632.00
2018-04-14T15:28:46.449Z,17760.00
2018-04-14T15:30:18.073Z,17824.00
2018-04-14T15:31:49.898Z,19008.00
2018-04-14T15:34:53.546Z,23232.00
2018-04-14T15:36:25.369Z,45760.00
2018-04-14T15:37:57.193Z,85184.00
2018-04-14T15:39:29.022Z,83616.00
2018-04-14T15:41:01.508Z,85728.00
2018-04-14T15:42:32.884Z,88352.00
2018-04-14T15:44:04.486Z,28096.00
2018-04-14T15:45:36.311Z,29312.00
2018-04-14T15:50:11.883Z,38400.00
2018-04-14T15:51:43.618Z,90816.00
2018-04-14T15:53:15.432Z,99936.00
2018-04-14T15:54:47.461Z,33952.00
2018-04-14T15:57:50.909Z,18944.00
2018-04-14T16:00:54.831Z,17728.00
2018-04-14T16:02:26.381Z,20160.00
2018-04-14T16:03:58.315Z,24672.00
2018-04-14T16:05:30.029Z,28256.00
2018-04-14T16:07:01.850Z,94656.00
2018-04-14T16:08:33.879Z,91328.00
2018-04-14T16:11:37.725Z,90688.00
2018-04-14T16:14:41.029Z,98688.00
2018-04-14T16:16:13.099Z,45408.00
2018-04-14T16:19:16.476Z,104576.00
2018-04-14T16:20:48.269Z,56832.00
2018-04-14T16:22:20.297Z,34592.00
2018-04-14T16:25:23.952Z,33344.00
2018-04-14T16:26:55.573Z,29760.00
2018-04-14T16:28:27.401Z,25984.00
2018-04-14T16:29:59.228Z,26016.00
2018-04-14T16:31:31.149Z,26528.00
2018-04-14T16:33:02.873Z,27232.00
2018-04-14T16:34:34.700Z,30048.00
2018-04-14T16:36:06.527Z,42208.00
2018-04-14T16:37:38.344Z,89792.00
2018-04-14T16:39:10.689Z,89440.00
2018-04-14T16:42:14.119Z,84736.00
2018-04-14T16:45:17.463Z,84896.00
2018-04-14T16:46:49.287Z,33792.00
2018-04-14T16:49:52.935Z,81632.00
2018-04-14T16:51:24.911Z,83680.00
2018-04-14T16:52:56.587Z,48960.00
2018-04-14T16:54:28.409Z,79680.00
2018-04-14T16:56:00.243Z,79168.00
2018-04-14T16:57:32.059Z,80608.00
2018-04-14T16:59:03.885Z,80160.00
2018-04-14T17:00:36.216Z,77024.00
2018-04-14T17:03:39.361Z,47584.00
2018-04-14T17:05:11.708Z,74496.00
2018-04-14T17:06:43.012Z,73088.00
2018-04-14T17:08:14.836Z,73824.00
2018-04-14T17:09:46.863Z,70880.00
2018-04-14T17:11:18.487Z,73280.00
2018-04-14T17:12:50.313Z,70336.00
2018-04-14T17:14:22.137Z,69184.00
2018-04-14T17:15:53.968Z,70016.00
2018-04-14T17:17:25.791Z,68480.00
2018-04-14T17:18:57.614Z,65984.00
2018-04-14T17:20:29.644Z,65184.00
2018-04-14T17:22:01.262Z,64608.00
2018-04-14T17:23:33.291Z,64992.00
2018-04-14T17:25:04.919Z,66080.00
2018-04-14T17:26:36.741Z,67104.00
2018-04-14T17:28:08.665Z,63392.00
2018-04-14T17:29:40.387Z,61600.00
2018-04-14T17:31:12.220Z,66944.00
2018-04-14T17:32:44.046Z,67104.00
2018-04-14T17:34:16.114Z,59616.00
2018-04-14T17:35:47.992Z,58240.00
2018-04-14T17:38:51.339Z,56992.00
2018-04-14T17:41:55.611Z,57216.00
2018-04-14T17:43:27.116Z,59264.00
2018-04-14T17:46:30.464Z,57664.00
2018-04-14T17:48:02.392Z,58496.00
2018-04-14T17:51:06.141Z,56000.00
2018-04-14T17:52:37.757Z,54816.00
2018-04-14T17:54:09.582Z,57248.00
2018-04-14T17:55:41.608Z,56768.00
2018-04-14T17:57:13.230Z,47808.00
2018-04-14T17:58:45.359Z,46464.00
2018-04-14T18:00:17.416Z,46816.00
2018-04-14T18:01:48.703Z,47520.00
2018-04-14T18:03:20.527Z,50368.00
2018-04-14T18:04:52.350Z,47392.00
2018-04-14T18:06:24.476Z,47200.00
2018-04-14T18:09:27.822Z,42432.00
2018-04-14T18:10:59.847Z,38688.00
2018-04-14T18:12:31.873Z,40064.00
2018-04-14T18:14:03.292Z,40320.00
2018-04-14T18:17:07.247Z,37984.00
2018-04-14T18:18:38.760Z,38592.00
2018-04-14T18:20:10.619Z,36480.00
2018-04-14T18:21:42.406Z,29120.00
2018-04-14T18:23:14.230Z,34752.00
2018-04-14T18:24:46.153Z,37312.00
2018-04-14T18:26:18.174Z,36704.00
2018-04-14T18:27:49.698Z,30592.00
2018-04-14T18:29:21.825Z,34304.00
2018-04-14T18:30:53.500Z,35776.00
2018-04-14T18:32:25.267Z,35392.00
2018-04-14T18:33:56.989Z,33536.00
2018-04-14T18:35:29.332Z,34048.00
2018-04-14T18:37:00.635Z,33440.00
2018-04-14T18:38:32.457Z,35520.00
2018-04-14T18:40:04.280Z,36480.00
2018-04-14T18:41:36.103Z,36064.00
2018-04-14T18:43:08.127Z,24768.00
2018-04-14T18:44:39.750Z,36576.00
2018-04-14T18:46:11.569Z,33664.00
2018-04-14T18:49:15.215Z,27648.00
2018-04-14T18:50:47.142Z,27296.00
2018-04-14T18:52:19.167Z,30656.00
2018-04-14T18:55:22.504Z,28064.00
2018-04-14T18:56:54.341Z,25504.00
2018-04-14T18:58:26.151Z,23616.00
2018-04-14T18:59:57.971Z,22656.00
2018-04-14T19:01:30.142Z,25504.00
2018-04-14T19:03:01.614Z,25664.00
2018-04-14T19:04:33.435Z,26080.00
2018-04-14T19:06:05.257Z,25888.00
2018-04-14T19:09:08.900Z,21120.00
2018-04-14T19:10:40.721Z,20352.00
2018-04-14T19:12:12.542Z,24672.00
2018-04-14T19:13:45.289Z,23040.00
2018-04-14T19:15:16.285Z,22464.00
2018-04-14T19:16:48.013Z,22272.00
2018-04-14T19:18:19.828Z,20928.00
2018-04-14T19:19:51.651Z,21152.00
2018-04-14T19:22:55.595Z,18848.00
2018-04-14T19:25:58.936Z,17248.00
2018-04-14T19:27:30.756Z,17056.00
2018-04-14T19:29:02.578Z,18080.00
2018-04-14T19:30:34.398Z,15120.00
2018-04-14T19:32:06.219Z,11656.00
2018-04-14T19:33:38.040Z,10448.00
2018-04-14T19:35:09.861Z,9504.00
2018-04-14T19:36:41.681Z,9640.00
2018-04-14T19:38:13.502Z,9836.00
2018-04-14T19:42:49.264Z,7832.00
2018-04-14T19:44:20.783Z,8176.00
2018-04-14T19:45:52.602Z,8660.00
2018-04-14T19:47:24.422Z,9100.00
2018-04-14T19:48:56.241Z,9068.00
2018-04-14T19:50:28.061Z,8460.00
2018-04-14T19:51:59.884Z,7072.00
2018-04-14T19:53:31.700Z,5496.00
2018-04-14T19:55:04.038Z,6084.00
2018-04-14T19:56:35.342Z,6552.00
2018-04-14T19:59:38.980Z,6612.00
2018-04-14T20:01:11.197Z,6952.00
2018-04-14T20:02:42.610Z,7160.00
2018-04-14T20:04:14.429Z,7152.00
2018-04-14T20:05:46.449Z,7028.00
2018-04-14T20:07:18.065Z,6764.00
2018-04-14T20:08:49.884Z,6360.00
2018-04-14T20:10:21.702Z,5720.00
2018-04-14T20:13:25.336Z,5100.00
2018-04-14T20:16:28.974Z,5252.00
2018-04-14T20:18:00.803Z,5056.00
2018-04-14T20:19:32.710Z,4820.00
2018-04-14T20:21:04.426Z,4600.00
2018-04-14T20:22:36.243Z,4356.00
2018-04-14T20:24:08.060Z,4116.00
2018-04-14T20:25:39.878Z,3920.00